createdAt,value
2019-04-01T00:02:00.004Z,102921.74
2019-04-01T00:04:29.027Z,102923.80
2019-04-01T00:06:58.120Z,102930.25
2019-04-01T00:09:27.142Z,102926.02
2019-04-01T00:11:56.185Z,102922.23
2019-04-01T00:14:25.249Z,102925.21
2019-04-01T00:16:54.254Z,102925.16
2019-04-01T00:19:23.264Z,102933.84
2019-04-01T00:21:52.326Z,102936.81
2019-04-01T00:24:21.331Z,102943.05
2019-04-01T00:26:50.350Z,102940.07
2019-04-01T00:29:19.406Z,102940.89
2019-04-01T00:31:48.454Z,102930.70
2019-04-01T00:34:17.769Z,102927.91
2019-04-01T00:36:47.073Z,102932.48
2019-04-01T00:39:16.131Z,102935.98
2019-04-01T00:42:16.400Z,102930.95
2019-04-01T00:44:45.422Z,102935.00
2019-04-01T00:47:14.362Z,102948.78
2019-04-01T00:49:43.414Z,102942.14
2019-04-01T00:52:12.854Z,102944.21
2019-04-01T00:54:42.042Z,102943.56
2019-04-01T00:57:11.059Z,102948.39
2019-04-01T00:59:40.143Z,102947.34
2019-04-01T01:02:09.157Z,102944.95
2019-04-01T01:04:38.137Z,102933.17
2019-04-01T01:07:07.194Z,102939.13
2019-04-01T01:09:36.205Z,102940.39
2019-04-01T01:12:05.256Z,102944.63
2019-04-01T01:14:34.529Z,102943.97
2019-04-01T01:17:03.594Z,102940.87
2019-04-01T01:19:32.596Z,102937.89
2019-04-01T01:22:01.613Z,102943.58
2019-04-01T01:24:32.445Z,102945.83
2019-04-01T01:27:01.402Z,102944.30
2019-04-01T01:29:30.460Z,102945.30
2019-04-01T01:31:59.527Z,102946.09
2019-04-01T01:34:28.476Z,102938.87
2019-04-01T01:36:57.502Z,102938.22
2019-04-01T01:39:26.887Z,102927.63
2019-04-01T01:41:56.246Z,102925.84
2019-04-01T01:44:25.256Z,102930.73
2019-04-01T01:46:54.362Z,102936.77
2019-04-01T01:49:23.310Z,102921.34
2019-04-01T01:51:52.330Z,102934.50
2019-04-01T01:54:21.785Z,102922.39
2019-04-01T01:56:51.144Z,102918.55
2019-04-01T01:59:20.146Z,102917.36
2019-04-01T02:01:49.281Z,102914.38
2019-04-01T02:04:18.335Z,102915.05
2019-04-01T02:06:47.375Z,102921.14
2019-04-01T02:09:16.382Z,102913.27
2019-04-01T02:11:45.447Z,102908.05
2019-04-01T02:14:14.791Z,102902.42
2019-04-01T02:16:43.809Z,102907.13
2019-04-01T02:19:13.233Z,102898.32
2019-04-01T02:21:42.257Z,102892.36
2019-04-01T02:24:11.301Z,102892.03
2019-04-01T02:26:40.284Z,102895.34
2019-04-01T02:29:09.614Z,102907.58
2019-04-01T02:31:38.692Z,102911.22
2019-04-01T02:34:07.641Z,102909.96
2019-04-01T02:36:36.655Z,102908.17
2019-04-01T02:39:08.858Z,102899.44
2019-04-01T02:41:38.065Z,102903.48
2019-04-01T02:44:07.124Z,102900.57
2019-04-01T02:46:36.161Z,102911.42
2019-04-01T02:49:05.228Z,102904.28
2019-04-01T02:51:34.257Z,102909.10
2019-04-01T02:54:03.308Z,102911.32
2019-04-01T02:56:32.330Z,102906.16
2019-04-01T02:59:01.459Z,102912.56
2019-04-01T03:01:30.478Z,102905.03
2019-04-01T03:04:00.034Z,102907.94
2019-04-01T03:06:29.834Z,102905.16
2019-04-01T03:08:58.853Z,102898.88
2019-04-01T03:11:27.894Z,102898.88
2019-04-01T03:13:56.950Z,102897.95
2019-04-01T03:16:26.034Z,102902.52
2019-04-01T03:18:55.128Z,102901.26
2019-04-01T03:21:24.191Z,102899.87
2019-04-01T03:23:53.207Z,102899.46
2019-04-01T03:26:22.232Z,102905.13
2019-04-01T03:28:51.266Z,102907.61
2019-04-01T03:31:20.352Z,102902.97
2019-04-01T03:33:49.416Z,102897.45
2019-04-01T03:36:18.418Z,102902.80
2019-04-01T03:38:47.864Z,102914.99
2019-04-01T03:41:16.884Z,102913.70
2019-04-01T03:43:45.913Z,102906.59
2019-04-01T03:46:14.984Z,102908.19
2019-04-01T03:48:43.992Z,102916.60
2019-04-01T03:51:13.017Z,102910.97
2019-04-01T03:53:42.742Z,102907.20
2019-04-01T03:56:11.764Z,102900.08
2019-04-01T03:58:40.823Z,102900.08
2019-04-01T04:01:10.158Z,102905.88
2019-04-01T04:03:39.166Z,102904.77
2019-04-01T04:06:08.259Z,102897.54
2019-04-01T04:08:37.598Z,102896.19
2019-04-01T04:11:07.123Z,102903.30
2019-04-01T04:13:36.083Z,102903.77
2019-04-01T04:16:05.138Z,102902.50
2019-04-01T04:18:34.209Z,102898.09
2019-04-01T04:21:03.221Z,102902.58
2019-04-01T04:23:32.275Z,102909.24
2019-04-01T04:26:01.249Z,102908.31
2019-04-01T04:28:30.627Z,102913.19
2019-04-01T04:30:59.682Z,102904.08
2019-04-01T04:33:28.736Z,102908.70
2019-04-01T04:35:57.757Z,102912.86
2019-04-01T04:38:26.831Z,102915.38
2019-04-01T04:40:55.854Z,102913.55
2019-04-01T04:43:25.103Z,102907.56
2019-04-01T04:45:54.117Z,102908.25
2019-04-01T04:48:23.126Z,102908.32
2019-04-01T04:50:52.898Z,102918.58
2019-04-01T04:53:21.922Z,102920.44
2019-04-01T04:55:50.973Z,102918.08
2019-04-01T04:58:20.022Z,102921.30
2019-04-01T05:00:49.077Z,102918.22
2019-04-01T05:03:18.099Z,102921.80
2019-04-01T05:05:47.161Z,102922.48
2019-04-01T05:08:16.216Z,102917.22
2019-04-01T05:10:45.229Z,102927.94
2019-04-01T05:13:14.366Z,102935.43
2019-04-01T05:15:43.393Z,102934.19
2019-04-01T05:18:12.710Z,102927.13
2019-04-01T05:20:42.378Z,102944.17
2019-04-01T05:23:12.378Z,102943.05
2019-04-01T05:25:42.340Z,102947.51
2019-04-01T05:28:14.197Z,102952.20
2019-04-01T05:30:45.686Z,102953.23
2019-04-01T05:33:16.986Z,102963.53
2019-04-01T05:35:46.067Z,102964.11
2019-04-01T05:38:15.282Z,102954.31
2019-04-01T05:40:44.433Z,102970.41
2019-04-01T05:43:13.441Z,102970.50
2019-04-01T05:45:42.628Z,102980.81
2019-04-01T05:48:12.452Z,102988.31
2019-04-01T05:50:41.646Z,102992.05
2019-04-01T05:53:10.764Z,102996.75
2019-04-01T05:55:39.808Z,103001.44
2019-04-01T05:58:08.862Z,103002.67
2019-04-01T06:00:50.953Z,103003.98
2019-04-01T06:03:20.406Z,102997.06
2019-04-01T06:05:49.974Z,103008.90
2019-04-01T06:08:19.146Z,103004.18
2019-04-01T06:10:48.159Z,103009.13
2019-04-01T06:13:17.460Z,103001.55
2019-04-01T06:15:46.522Z,103001.23
2019-04-01T06:18:15.680Z,103000.96
2019-04-01T06:20:44.723Z,103000.97
2019-04-01T06:23:13.747Z,103016.32
2019-04-01T06:25:42.805Z,103017.61
2019-04-01T06:28:11.924Z,103014.64
2019-04-01T06:30:41.278Z,103013.80
2019-04-01T06:33:10.293Z,103003.16
2019-04-01T06:35:39.361Z,103003.08
2019-04-01T06:38:08.405Z,103015.43
2019-04-01T06:40:37.460Z,103015.41
2019-04-01T06:43:06.478Z,103021.84
2019-04-01T06:45:35.545Z,103008.58
2019-04-01T06:48:04.570Z,103010.27
2019-04-01T06:50:33.637Z,103007.35
2019-04-01T06:53:02.717Z,103005.47
2019-04-01T06:55:31.731Z,103001.66
2019-04-01T06:58:00.784Z,102999.87
2019-04-01T07:00:29.821Z,103005.12
2019-04-01T07:02:58.948Z,103018.72
2019-04-01T07:05:28.250Z,103015.89
2019-04-01T07:07:57.316Z,103002.30
2019-04-01T07:10:26.339Z,102997.09
2019-04-01T07:12:55.366Z,103001.33
2019-04-01T07:15:24.428Z,103015.92
2019-04-01T07:17:53.549Z,103010.82
2019-04-01T07:20:22.695Z,103001.84
2019-04-01T07:22:51.792Z,103000.56
2019-04-01T07:25:20.852Z,103001.81
2019-04-01T07:27:49.875Z,102997.92
2019-04-01T07:30:19.226Z,102988.87
2019-04-01T07:32:48.671Z,102982.36
2019-04-01T07:35:17.725Z,102976.80
2019-04-01T07:37:46.949Z,102968.28
2019-04-01T07:40:16.304Z,102955.21
2019-04-01T07:42:45.523Z,102961.75
2019-04-01T07:45:14.670Z,102962.06
2019-04-01T07:47:43.778Z,102965.84
2019-04-01T07:50:13.653Z,102961.94
2019-04-01T07:52:42.697Z,102971.50
2019-04-01T07:55:11.854Z,102973.54
2019-04-01T07:57:40.918Z,102976.92
2019-04-01T08:00:10.330Z,102976.91
2019-04-01T08:02:39.342Z,102977.30
2019-04-01T08:05:08.711Z,102986.41
2019-04-01T08:07:38.005Z,102990.82
2019-04-01T08:10:07.773Z,103007.98
2019-04-01T08:12:36.833Z,103007.05
2019-04-01T08:15:06.532Z,103004.59
2019-04-01T08:17:36.562Z,103002.87
2019-04-01T08:20:05.962Z,103009.16
2019-04-01T08:22:35.082Z,103005.61
2019-04-01T08:25:04.535Z,103013.57
2019-04-01T08:27:33.717Z,103014.84
2019-04-01T08:30:02.909Z,103013.09
2019-04-01T08:32:32.251Z,103015.66
2019-04-01T08:35:01.355Z,103020.23
2019-04-01T08:37:30.819Z,103024.48
2019-04-01T08:40:00.028Z,103017.75
2019-04-01T08:42:29.034Z,103014.80
2019-04-01T08:44:58.087Z,103006.28
2019-04-01T08:47:27.103Z,103011.45
2019-04-01T08:49:56.105Z,103009.22
2019-04-01T08:52:25.577Z,103013.90
2019-04-01T08:54:55.384Z,103014.22
2019-04-01T08:57:24.428Z,103003.33
2019-04-01T08:59:56.249Z,103018.69
2019-04-01T09:02:24.420Z,103013.63
2019-04-01T09:04:53.569Z,103001.56
2019-04-01T09:07:22.571Z,103004.80
2019-04-01T09:09:52.544Z,103022.34
2019-04-01T09:12:21.588Z,103020.25
2019-04-01T09:14:52.519Z,103031.06
2019-04-01T09:17:22.227Z,103029.02
2019-04-01T09:19:51.314Z,103021.02
2019-04-01T09:22:20.321Z,103027.01
2019-04-01T09:24:49.355Z,103021.86
2019-04-01T09:27:18.360Z,103003.81
2019-04-01T09:29:47.481Z,103013.78
2019-04-01T09:32:16.487Z,103017.63
2019-04-01T09:34:45.527Z,103008.67
2019-04-01T09:37:14.533Z,102998.02
2019-04-01T09:39:43.907Z,103023.17
2019-04-01T09:42:12.949Z,103024.45
2019-04-01T09:44:41.962Z,103015.07
2019-04-01T09:47:10.969Z,103018.89
2019-04-01T09:49:40.016Z,103010.78
2019-04-01T09:52:09.061Z,103008.23
2019-04-01T09:54:38.063Z,103000.58
2019-04-01T09:57:17.571Z,102998.02
2019-04-01T09:59:37.885Z,103014.23
2019-04-01T10:02:06.933Z,103007.40
2019-04-01T10:04:35.950Z,102997.16
2019-04-01T10:07:04.979Z,102998.86
2019-04-01T10:09:34.075Z,103001.39
2019-04-01T10:12:03.080Z,102996.25
2019-04-01T10:14:32.085Z,103004.31
2019-04-01T10:17:01.144Z,102990.28
2019-04-01T10:19:30.156Z,102980.83
2019-04-01T10:21:59.216Z,102996.25
2019-04-01T10:24:28.223Z,102987.72
2019-04-01T10:26:57.233Z,102995.38
2019-04-01T10:32:06.489Z,102979.14
2019-04-01T10:34:35.496Z,102981.64
2019-04-01T10:37:04.545Z,102977.52
2019-04-01T10:39:33.557Z,102973.23
2019-04-01T10:42:02.629Z,102972.02
2019-04-01T10:44:31.671Z,102958.37
2019-04-01T10:47:00.694Z,102957.08
2019-04-01T10:49:32.106Z,102952.83
2019-04-01T10:52:00.805Z,102958.77
2019-04-01T10:54:29.786Z,102950.24
2019-04-01T10:56:58.898Z,102944.72
2019-04-01T10:59:27.903Z,102947.22
2019-04-01T11:01:56.919Z,102930.61
2019-04-01T11:04:26.047Z,102927.97
2019-04-01T11:06:55.203Z,102922.98
2019-04-01T11:09:37.615Z,102928.09
2019-04-01T11:11:55.963Z,102924.58
2019-04-01T11:14:25.404Z,102922.03
2019-04-01T11:16:54.449Z,102907.64
2019-04-01T11:19:23.394Z,102914.37
2019-04-01T11:21:52.433Z,102897.84
2019-04-01T11:24:21.436Z,102902.91
2019-04-01T11:26:50.492Z,102906.75
2019-04-01T11:29:19.539Z,102902.91
2019-04-01T11:31:48.601Z,102903.81
2019-04-01T11:34:17.590Z,102907.17
2019-04-01T11:36:46.774Z,102898.27
2019-04-01T11:39:16.160Z,102894.82
2019-04-01T11:41:45.187Z,102894.00
2019-04-01T11:44:14.200Z,102891.03
2019-04-01T11:46:43.214Z,102888.05
2019-04-01T11:49:12.339Z,102884.61
2019-04-01T11:51:41.365Z,102879.05
2019-04-01T11:54:10.559Z,102874.30
2019-04-01T11:56:41.372Z,102867.91
2019-04-01T11:59:10.509Z,102874.41
2019-04-01T12:01:39.520Z,102862.48
2019-04-01T12:04:08.576Z,102853.09
2019-04-01T12:06:37.618Z,102853.52
2019-04-01T12:09:07.602Z,102852.25
2019-04-01T12:11:36.650Z,102846.28
2019-04-01T12:14:05.816Z,102839.02
2019-04-01T12:16:34.825Z,102824.52
2019-04-01T12:19:03.845Z,102827.93
2019-04-01T12:21:32.902Z,102826.23
2019-04-01T12:24:01.940Z,102817.32
2019-04-01T12:26:30.944Z,102793.02
2019-04-01T12:28:59.992Z,102802.39
2019-04-01T12:31:29.052Z,102797.70
2019-04-01T12:33:58.059Z,102786.18
2019-04-01T12:36:27.716Z,102776.81
2019-04-01T12:38:57.040Z,102778.52
2019-04-01T12:41:26.088Z,102776.39
2019-04-01T12:43:55.432Z,102775.11
2019-04-01T12:46:24.484Z,102776.80
2019-04-01T12:48:53.490Z,102769.56
2019-04-01T12:51:22.518Z,102768.72
2019-04-01T12:53:51.884Z,102765.73
2019-04-01T12:56:20.943Z,102770.77
2019-04-01T12:58:49.953Z,102748.27
2019-04-01T13:01:20.339Z,102736.30
2019-04-01T13:03:49.687Z,102741.39
2019-04-01T13:06:18.698Z,102726.52
2019-04-01T13:08:47.738Z,102739.70
2019-04-01T13:11:16.786Z,102750.75
2019-04-01T13:13:48.696Z,102723.93
2019-04-01T13:16:16.599Z,102724.78
2019-04-01T13:18:47.280Z,102717.14
2019-04-01T13:21:16.582Z,102721.79
2019-04-01T13:23:45.591Z,102692.88
2019-04-01T13:26:14.607Z,102692.45
2019-04-01T13:28:43.661Z,102681.42
2019-04-01T13:31:12.704Z,102687.80
2019-04-01T13:33:41.714Z,102678.48
2019-04-01T13:36:10.782Z,102668.65
2019-04-01T13:38:39.794Z,102661.38
2019-04-01T13:41:12.832Z,102651.17
2019-04-01T13:43:39.956Z,102645.23
2019-04-01T13:46:08.958Z,102646.09
2019-04-01T13:48:38.006Z,102653.67
2019-04-01T13:51:07.020Z,102640.94
2019-04-01T13:53:36.040Z,102640.87
2019-04-01T13:56:05.091Z,102636.61
2019-04-01T13:58:34.093Z,102633.19
2019-04-01T14:01:03.091Z,102632.70
2019-04-01T14:03:32.154Z,102618.30
2019-04-01T14:06:01.144Z,102609.34
2019-04-01T14:08:30.157Z,102611.83
2019-04-01T14:10:59.227Z,102605.56
2019-04-01T14:13:28.278Z,102603.80
2019-04-01T14:15:57.278Z,102596.58
2019-04-01T14:18:27.005Z,102604.20
2019-04-01T14:20:56.061Z,102582.98
2019-04-01T14:23:25.104Z,102574.03
2019-04-01T14:25:54.104Z,102587.16
2019-04-01T14:28:23.158Z,102584.15
2019-04-01T14:30:52.164Z,102575.27
2019-04-01T14:33:21.521Z,102582.93
2019-04-01T14:35:50.561Z,102571.42
2019-04-01T14:38:19.560Z,102563.42
2019-04-01T14:40:48.609Z,102549.85
2019-04-01T14:43:17.611Z,102561.34
2019-04-01T14:45:46.675Z,102556.14
2019-04-01T14:48:15.666Z,102558.26
2019-04-01T14:50:44.728Z,102547.69
2019-04-01T14:53:13.740Z,102543.36
2019-04-01T14:55:43.100Z,102531.93
2019-04-01T14:58:12.219Z,102519.19
2019-04-01T15:00:41.219Z,102524.75
2019-04-01T15:03:10.249Z,102523.88
2019-04-01T15:05:39.579Z,102533.19
2019-04-01T15:08:08.851Z,102523.47
2019-04-01T15:10:40.889Z,102510.69
2019-04-01T15:13:09.173Z,102507.72
2019-04-01T15:15:38.140Z,102498.37
2019-04-01T15:18:09.798Z,102491.55
2019-04-01T15:20:38.603Z,102496.58
2019-04-01T15:23:07.642Z,102469.82
2019-04-01T15:25:36.635Z,102471.48
2019-04-01T15:28:05.662Z,102469.01
2019-04-01T15:30:34.701Z,102466.52
2019-04-01T15:33:04.019Z,102461.35
2019-04-01T15:35:33.058Z,102455.36
2019-04-01T15:38:02.381Z,102457.84
2019-04-01T15:40:33.228Z,102455.70
2019-04-01T15:43:02.188Z,102445.52
2019-04-01T15:45:31.530Z,102442.52
2019-04-01T15:48:00.602Z,102437.84
2019-04-01T15:50:29.603Z,102427.19
2019-04-01T15:52:58.577Z,102418.78
2019-04-01T15:55:27.622Z,102423.31
2019-04-01T15:57:56.625Z,102427.03
2019-04-01T16:00:25.722Z,102413.45
2019-04-01T16:02:54.783Z,102405.77
2019-04-01T16:05:24.255Z,102412.13
2019-04-01T16:07:53.251Z,102387.94
2019-04-01T16:10:24.847Z,102382.86
2019-04-01T16:12:53.181Z,102381.09
2019-04-01T16:15:22.179Z,102371.79
2019-04-01T16:17:53.817Z,102374.31
2019-04-01T16:20:21.989Z,102369.15
2019-04-01T16:22:50.991Z,102360.72
2019-04-01T16:25:20.027Z,102347.09
2019-04-01T16:27:49.028Z,102347.00
2019-04-01T16:30:18.075Z,102346.12
2019-04-01T16:32:47.075Z,102345.41
2019-04-01T16:35:16.508Z,102338.09
2019-04-01T16:37:45.501Z,102331.69
2019-04-01T16:40:14.739Z,102328.17
2019-04-01T16:42:43.890Z,102328.06
2019-04-01T16:45:13.590Z,102311.92
2019-04-01T16:47:43.076Z,102308.99
2019-04-01T16:50:12.270Z,102311.86
2019-04-01T16:52:41.271Z,102285.08
2019-04-01T16:55:11.709Z,102292.70
2019-04-01T16:57:40.705Z,102298.22
2019-04-01T17:00:14.125Z,102291.45
2019-04-01T17:02:41.368Z,102290.58
2019-04-01T17:05:11.298Z,102285.52
2019-04-01T17:07:41.163Z,102287.14
2019-04-01T17:10:12.609Z,102276.41
2019-04-01T17:12:41.542Z,102280.19
2019-04-01T17:15:11.000Z,102287.76
2019-04-01T17:17:40.043Z,102269.13
2019-04-01T17:20:09.185Z,102280.97
2019-04-01T17:22:38.486Z,102272.52
2019-04-01T17:25:07.929Z,102264.03
2019-04-01T17:27:36.939Z,102267.33
2019-04-01T17:30:07.641Z,102262.64
2019-04-01T17:32:36.690Z,102267.27
2019-04-01T17:35:06.186Z,102257.39
2019-04-01T17:37:35.335Z,102267.09
2019-04-01T17:40:05.046Z,102264.41
2019-04-01T17:42:34.117Z,102260.65
2019-04-01T17:45:11.258Z,102259.23
2019-04-01T17:47:40.343Z,102256.63
2019-04-01T17:50:09.717Z,102258.30
2019-04-01T17:52:38.774Z,102253.10
2019-04-01T17:55:07.791Z,102252.52
2019-04-01T17:57:37.149Z,102241.91
2019-04-01T18:00:10.145Z,102248.99
2019-04-01T18:02:39.164Z,102245.09
2019-04-01T18:05:11.375Z,102245.07
2019-04-01T18:07:40.388Z,102249.58
2019-04-01T18:10:09.426Z,102253.72
2019-04-01T18:12:38.742Z,102257.52
2019-04-01T18:15:07.850Z,102256.53
2019-04-01T18:17:36.927Z,102262.36
2019-04-01T18:20:06.348Z,102259.62
2019-04-01T18:22:35.350Z,102263.83
2019-04-01T18:25:04.534Z,102262.94
2019-04-01T18:27:33.654Z,102256.13
2019-04-01T18:30:02.702Z,102267.07
2019-04-01T18:32:31.718Z,102259.45
2019-04-01T18:35:03.888Z,102256.80
2019-04-01T18:37:31.513Z,102269.84
2019-04-01T18:40:00.562Z,102262.64
2019-04-01T18:42:31.208Z,102260.45
2019-04-01T18:45:00.317Z,102260.83
2019-04-01T18:47:29.328Z,102266.28
2019-04-01T18:49:58.363Z,102259.49
2019-04-01T18:52:27.454Z,102255.62
2019-04-01T18:54:56.461Z,102256.01
2019-04-01T18:57:27.187Z,102244.13
2019-04-01T18:59:56.296Z,102240.66
2019-04-01T19:02:25.339Z,102249.50
2019-04-01T19:04:54.390Z,102243.98
2019-04-01T19:07:23.428Z,102239.33
2019-04-01T19:10:05.289Z,102243.90
2019-04-01T19:12:23.579Z,102245.58
2019-04-01T19:14:52.586Z,102245.08
2019-04-01T19:17:21.635Z,102245.05
2019-04-01T19:19:50.640Z,102247.12
2019-04-01T19:22:19.744Z,102241.53
2019-04-01T19:24:48.684Z,102244.45
2019-04-01T19:27:17.629Z,102244.03
2019-04-01T19:29:46.681Z,102235.95
2019-04-01T19:32:15.727Z,102239.72
2019-04-01T19:34:44.781Z,102232.98
2019-04-01T19:37:13.842Z,102230.37
2019-04-01T19:39:42.913Z,102227.84
2019-04-01T19:42:12.038Z,102227.82
2019-04-01T19:44:41.023Z,102220.98
2019-04-01T19:47:10.097Z,102219.71
2019-04-01T19:49:39.111Z,102218.02
2019-04-01T19:52:09.734Z,102220.09
2019-04-01T19:54:39.299Z,102206.47
2019-04-01T19:57:08.374Z,102207.30
2019-04-01T19:59:37.387Z,102198.03
2019-04-01T20:02:09.375Z,102200.53
2019-04-01T20:04:37.234Z,102202.13
2019-04-01T20:07:06.289Z,102190.25
2019-04-01T20:09:35.294Z,102180.53
2019-04-01T20:12:04.444Z,102186.41
2019-04-01T20:14:33.489Z,102187.20
2019-04-01T20:17:02.555Z,102185.44
2019-04-01T20:19:31.585Z,102182.06
2019-04-01T20:22:00.647Z,102176.57
2019-04-01T20:24:29.657Z,102176.52
2019-04-01T20:26:58.666Z,102184.47
2019-04-01T20:29:30.126Z,102173.39
2019-04-01T20:31:58.502Z,102179.24
2019-04-01T20:34:27.925Z,102174.10
2019-04-01T20:36:57.740Z,102170.28
2019-04-01T20:39:26.792Z,102167.60
2019-04-01T20:41:56.133Z,102175.09
2019-04-01T20:44:25.184Z,102168.33
2019-04-01T20:46:54.208Z,102164.48
2019-04-01T20:49:23.264Z,102167.80
2019-04-01T20:51:53.978Z,102163.13
2019-04-01T20:54:23.186Z,102160.54
2019-04-01T20:56:52.189Z,102158.36
2019-04-01T20:59:21.258Z,102159.59
2019-04-01T21:01:50.259Z,102160.00
2019-04-01T21:04:19.272Z,102152.75
2019-04-01T21:06:49.243Z,102152.27
2019-04-01T21:09:19.525Z,102148.05
2019-04-01T21:11:48.536Z,102137.92
2019-04-01T21:14:17.516Z,102137.38
2019-04-01T21:16:46.527Z,102131.45
2019-04-01T21:19:16.322Z,102134.42
2019-04-01T21:21:45.578Z,102131.83
2019-04-01T21:24:14.596Z,102129.20
2019-04-01T21:26:43.641Z,102122.08
2019-04-01T21:29:12.684Z,102124.54
2019-04-01T21:31:41.729Z,102116.12
2019-04-01T21:34:11.214Z,102116.12
2019-04-01T21:36:40.660Z,102116.05
2019-04-01T21:39:09.680Z,102109.30
2019-04-01T21:41:38.776Z,102108.48
2019-04-01T21:44:07.780Z,102109.24
2019-04-01T21:46:36.795Z,102101.23
2019-04-01T21:49:05.853Z,102104.98
2019-04-01T21:51:34.915Z,102095.27
2019-04-01T21:54:03.927Z,102091.89
2019-04-01T21:56:33.024Z,102093.94
2019-04-01T21:59:02.083Z,102090.09
2019-04-01T22:01:31.338Z,102090.13
2019-04-01T22:04:00.350Z,102084.64
2019-04-01T22:06:29.402Z,102087.91
2019-04-01T22:08:58.461Z,102079.97
2019-04-01T22:11:27.470Z,102077.45
2019-04-01T22:13:56.507Z,102073.67
2019-04-01T22:16:25.542Z,102073.60
2019-04-01T22:18:54.540Z,102073.67
2019-04-01T22:21:23.592Z,102066.16
2019-04-01T22:23:52.606Z,102062.83
2019-04-01T22:26:21.620Z,102062.45
2019-04-01T22:28:51.193Z,102057.41
2019-04-01T22:31:20.542Z,102046.08
2019-04-01T22:33:49.472Z,102036.34
2019-04-01T22:36:30.255Z,102029.19
2019-04-01T22:38:49.270Z,102032.12
2019-04-01T22:41:18.286Z,102034.26
2019-04-01T22:43:47.327Z,102031.77
2019-04-01T22:46:18.205Z,102026.69
2019-04-01T22:48:47.321Z,102026.25
2019-04-01T22:51:16.678Z,102022.91
2019-04-01T22:53:45.613Z,102027.52
2019-04-01T22:56:14.998Z,102026.63
2019-04-01T22:58:44.014Z,102017.30
2019-04-01T23:01:13.021Z,102013.92
2019-04-01T23:03:42.334Z,102015.12
2019-04-01T23:06:11.683Z,102009.61
2019-04-01T23:08:40.693Z,102007.49
2019-04-01T23:11:09.705Z,102010.39
2019-04-01T23:13:39.061Z,102012.03
2019-04-01T23:16:08.151Z,102007.81
2019-04-01T23:18:37.171Z,102003.08
2019-04-01T23:21:06.226Z,101998.45
2019-04-01T23:23:35.235Z,102003.94
2019-04-01T23:26:04.297Z,101996.84
2019-04-01T23:28:33.333Z,101993.50
2019-04-01T23:31:02.379Z,101996.47
2019-04-01T23:33:31.384Z,101989.78
2019-04-01T23:36:00.398Z,101993.19
2019-04-01T23:38:29.457Z,101981.08
2019-04-01T23:40:58.468Z,101983.75
2019-04-01T23:43:27.402Z,101987.28
2019-04-01T23:45:56.453Z,101979.77
2019-04-01T23:48:25.748Z,101975.16
2019-04-01T23:50:54.804Z,101975.66
2019-04-01T23:53:23.858Z,101969.84
2019-04-01T23:55:52.910Z,101975.01
2019-04-01T23:58:22.425Z,101969.17
